sensor_id;sensor_type;location;lat;lon;timestamp;P1;durP1;ratioP1;P2;durP2;ratioP2
2644;SDS011;15377;48.540;9.268;2023-01-19T00:00:57;22.47;;;14.23;;
2644;SDS011;15377;48.540;9.268;2023-01-19T00:03:22;25.10;;;15.60;;
2644;SDS011;15377;48.540;9.268;2023-01-19T00:05:47;21.50;;;12.97;;
2644;SDS011;15377;48.540;9.268;2023-01-19T00:08:13;22.20;;;13.93;;
2644;SDS011;15377;48.540;9.268;2023-01-19T00:10:39;19.00;;;13.27;;
2644;SDS011;15377;48.540;9.268;2023-01-19T00:13:09;23.20;;;13.35;;
2644;SDS011;15377;48.540;9.268;2023-01-19T00:15:35;18.73;;;10.93;;
2644;SDS011;15377;48.540;9.268;2023-01-19T00:18:00;21.20;;;12.47;;
2644;SDS011;15377;48.540;9.268;2023-01-19T00:20:25;23.67;;;14.40;;
2644;SDS011;15377;48.540;9.268;2023-01-19T00:22:51;21.00;;;12.70;;
2644;SDS011;15377;48.540;9.268;2023-01-19T00:25:16;24.03;;;15.23;;
2644;SDS011;15377;48.540;9.268;2023-01-19T00:27:42;21.37;;;13.80;;
2644;SDS011;15377;48.540;9.268;2023-01-19T00:30:16;23.95;;;14.48;;
2644;SDS011;15377;48.540;9.268;2023-01-19T00:32:42;24.35;;;14.25;;
2644;SDS011;15377;48.540;9.268;2023-01-19T00:35:07;24.67;;;15.70;;
2644;SDS011;15377;48.540;9.268;2023-01-19T00:37:33;26.57;;;14.60;;
2644;SDS011;15377;48.540;9.268;2023-01-19T00:39:58;26.50;;;15.07;;
2644;SDS011;15377;48.540;9.268;2023-01-19T00:42:24;24.27;;;15.30;;
2644;SDS011;15377;48.540;9.268;2023-01-19T00:45:05;27.90;;;16.55;;
2644;SDS011;15377;48.540;9.268;2023-01-19T00:47:35;27.42;;;16.95;;
2644;SDS011;15377;48.540;9.268;2023-01-19T00:50:00;37.07;;;22.10;;
2644;SDS011;15377;48.540;9.268;2023-01-19T00:52:25;28.20;;;17.40;;
2644;SDS011;15377;48.540;9.268;2023-01-19T00:54:51;34.73;;;20.47;;
2644;SDS011;15377;48.540;9.268;2023-01-19T00:57:16;36.07;;;19.80;;
2644;SDS011;15377;48.540;9.268;2023-01-19T00:59:43;32.45;;;20.48;;
2644;SDS011;15377;48.540;9.268;2023-01-19T01:02:08;29.60;;;19.10;;
2644;SDS011;15377;48.540;9.268;2023-01-19T01:04:35;32.97;;;19.08;;
2644;SDS011;15377;48.540;9.268;2023-01-19T01:07:01;35.90;;;20.27;;
2644;SDS011;15377;48.540;9.268;2023-01-19T01:09:26;29.00;;;18.83;;
2644;SDS011;15377;48.540;9.268;2023-01-19T01:11:51;28.70;;;18.20;;
2644;SDS011;15377;48.540;9.268;2023-01-19T01:14:17;33.93;;;19.30;;
2644;SDS011;15377;48.540;9.268;2023-01-19T01:16:43;29.17;;;19.30;;
2644;SDS011;15377;48.540;9.268;2023-01-19T01:19:08;36.57;;;20.00;;
2644;SDS011;15377;48.540;9.268;2023-01-19T01:21:34;29.80;;;18.37;;
2644;SDS011;15377;48.540;9.268;2023-01-19T01:23:59;35.90;;;19.97;;
2644;SDS011;15377;48.540;9.268;2023-01-19T01:26:25;29.33;;;17.77;;
2644;SDS011;15377;48.540;9.268;2023-01-19T01:28:50;31.90;;;18.13;;
2644;SDS011;15377;48.540;9.268;2023-01-19T01:31:16;33.40;;;17.83;;
2644;SDS011;15377;48.540;9.268;2023-01-19T01:33:41;31.07;;;17.83;;
2644;SDS011;15377;48.540;9.268;2023-01-19T01:36:07;26.33;;;16.67;;
2644;SDS011;15377;48.540;9.268;2023-01-19T01:38:33;27.35;;;15.30;;
2644;SDS011;15377;48.540;9.268;2023-01-19T01:40:58;30.27;;;15.57;;
2644;SDS011;15377;48.540;9.268;2023-01-19T01:43:39;27.40;;;16.50;;
2644;SDS011;15377;48.540;9.268;2023-01-19T01:46:18;28.90;;;14.90;;
2644;SDS011;15377;48.540;9.268;2023-01-19T01:48:45;23.50;;;15.50;;
2644;SDS011;15377;48.540;9.268;2023-01-19T01:51:21;27.33;;;16.20;;
2644;SDS011;15377;48.540;9.268;2023-01-19T01:54:02;29.13;;;15.52;;
2644;SDS011;15377;48.540;9.268;2023-01-19T01:56:33;28.83;;;16.20;;
2644;SDS011;15377;48.540;9.268;2023-01-19T01:59:05;27.52;;;17.48;;
2644;SDS011;15377;48.540;9.268;2023-01-19T02:01:33;25.08;;;14.68;;
2644;SDS011;15377;48.540;9.268;2023-01-19T02:04:18;27.45;;;15.65;;
2644;SDS011;15377;48.540;9.268;2023-01-19T02:06:43;22.33;;;13.50;;
2644;SDS011;15377;48.540;9.268;2023-01-19T02:09:29;22.83;;;14.52;;
2644;SDS011;15377;48.540;9.268;2023-01-19T02:12:17;24.15;;;14.23;;
2644;SDS011;15377;48.540;9.268;2023-01-19T02:15:01;26.13;;;14.40;;
2644;SDS011;15377;48.540;9.268;2023-01-19T02:17:27;24.80;;;15.33;;
2644;SDS011;15377;48.540;9.268;2023-01-19T02:19:52;30.57;;;15.63;;
2644;SDS011;15377;48.540;9.268;2023-01-19T02:22:25;28.57;;;15.90;;
2644;SDS011;15377;48.540;9.268;2023-01-19T02:24:59;26.23;;;15.02;;
2644;SDS011;15377;48.540;9.268;2023-01-19T02:27:27;26.33;;;14.98;;
2644;SDS011;15377;48.540;9.268;2023-01-19T02:29:53;25.50;;;14.43;;
2644;SDS011;15377;48.540;9.268;2023-01-19T02:32:19;23.23;;;14.05;;
2644;SDS011;15377;48.540;9.268;2023-01-19T02:34:44;26.13;;;14.70;;
2644;SDS011;15377;48.540;9.268;2023-01-19T02:37:10;24.03;;;14.40;;
2644;SDS011;15377;48.540;9.268;2023-01-19T02:39:52;19.98;;;12.30;;
2644;SDS011;15377;48.540;9.268;2023-01-19T02:42:22;21.90;;;14.32;;
2644;SDS011;15377;48.540;9.268;2023-01-19T02:44:52;24.08;;;13.23;;
2644;SDS011;15377;48.540;9.268;2023-01-19T02:47:19;23.30;;;13.70;;
2644;SDS011;15377;48.540;9.268;2023-01-19T02:49:52;20.30;;;13.03;;
2644;SDS011;15377;48.540;9.268;2023-01-19T02:52:21;18.88;;;12.48;;
2644;SDS011;15377;48.540;9.268;2023-01-19T02:55:00;18.37;;;11.73;;
2644;SDS011;15377;48.540;9.268;2023-01-19T02:57:42;19.83;;;12.50;;
2644;SDS011;15377;48.540;9.268;2023-01-19T03:06:43;19.98;;;11.68;;
2644;SDS011;15377;48.540;9.268;2023-01-19T03:08:52;22.95;;;11.10;;
2644;SDS011;15377;48.540;9.268;2023-01-19T03:11:19;16.85;;;11.10;;
2644;SDS011;15377;48.540;9.268;2023-01-19T03:18:57;20.47;;;12.47;;
2644;SDS011;15377;48.540;9.268;2023-01-19T03:21:28;20.05;;;13.00;;
2644;SDS011;15377;48.540;9.268;2023-01-19T03:23:59;20.08;;;12.55;;
2644;SDS011;15377;48.540;9.268;2023-01-19T03:26:28;19.00;;;11.20;;
2644;SDS011;15377;48.540;9.268;2023-01-19T03:28:58;19.00;;;11.63;;
2644;SDS011;15377;48.540;9.268;2023-01-19T03:31:27;20.92;;;12.35;;
2644;SDS011;15377;48.540;9.268;2023-01-19T03:33:57;22.00;;;10.88;;
2644;SDS011;15377;48.540;9.268;2023-01-19T03:36:31;16.83;;;11.57;;
2644;SDS011;15377;48.540;9.268;2023-01-19T03:39:00;21.92;;;11.35;;
2644;SDS011;15377;48.540;9.268;2023-01-19T03:41:28;18.25;;;10.55;;
2644;SDS011;15377;48.540;9.268;2023-01-19T03:43:56;18.50;;;11.77;;
2644;SDS011;15377;48.540;9.268;2023-01-19T03:46:22;17.77;;;10.75;;
2644;SDS011;15377;48.540;9.268;2023-01-19T03:48:49;21.35;;;11.90;;
2644;SDS011;15377;48.540;9.268;2023-01-19T03:51:16;20.38;;;11.18;;
2644;SDS011;15377;48.540;9.268;2023-01-19T03:53:43;19.85;;;11.85;;
2644;SDS011;15377;48.540;9.268;2023-01-19T03:56:19;19.93;;;10.73;;
2644;SDS011;15377;48.540;9.268;2023-01-19T03:58:46;21.15;;;12.10;;
2644;SDS011;15377;48.540;9.268;2023-01-19T04:01:12;25.53;;;13.90;;
2644;SDS011;15377;48.540;9.268;2023-01-19T04:03:38;22.20;;;11.75;;
2644;SDS011;15377;48.540;9.268;2023-01-19T04:06:05;27.83;;;14.20;;
2644;SDS011;15377;48.540;9.268;2023-01-19T04:08:31;19.35;;;10.75;;
2644;SDS011;15377;48.540;9.268;2023-01-19T04:10:57;18.53;;;12.53;;
2644;SDS011;15377;48.540;9.268;2023-01-19T04:13:22;21.38;;;13.85;;
2644;SDS011;15377;48.540;9.268;2023-01-19T04:15:48;21.73;;;12.67;;
2644;SDS011;15377;48.540;9.268;2023-01-19T04:18:13;22.60;;;11.93;;
2644;SDS011;15377;48.540;9.268;2023-01-19T04:20:38;19.80;;;10.90;;
2644;SDS011;15377;48.540;9.268;2023-01-19T04:23:04;23.40;;;12.00;;
2644;SDS011;15377;48.540;9.268;2023-01-19T04:25:29;19.07;;;11.90;;
2644;SDS011;15377;48.540;9.268;2023-01-19T04:27:55;21.03;;;12.23;;
2644;SDS011;15377;48.540;9.268;2023-01-19T04:30:22;21.35;;;10.30;;
2644;SDS011;15377;48.540;9.268;2023-01-19T04:32:47;19.47;;;12.03;;
2644;SDS011;15377;48.540;9.268;2023-01-19T04:35:13;22.23;;;13.90;;
2644;SDS011;15377;48.540;9.268;2023-01-19T04:37:38;18.83;;;12.23;;
2644;SDS011;15377;48.540;9.268;2023-01-19T04:40:04;22.20;;;10.80;;
2644;SDS011;15377;48.540;9.268;2023-01-19T04:42:30;19.85;;;11.10;;
2644;SDS011;15377;48.540;9.268;2023-01-19T04:44:56;26.33;;;13.67;;
2644;SDS011;15377;48.540;9.268;2023-01-19T04:47:21;21.17;;;11.70;;
2644;SDS011;15377;48.540;9.268;2023-01-19T04:49:47;24.43;;;11.50;;
2644;SDS011;15377;48.540;9.268;2023-01-19T04:52:12;18.47;;;12.13;;
2644;SDS011;15377;48.540;9.268;2023-01-19T04:54:37;21.40;;;10.70;;
2644;SDS011;15377;48.540;9.268;2023-01-19T04:57:03;22.00;;;12.30;;
2644;SDS011;15377;48.540;9.268;2023-01-19T04:59:28;22.77;;;12.43;;
2644;SDS011;15377;48.540;9.268;2023-01-19T05:01:53;21.10;;;11.83;;
2644;SDS011;15377;48.540;9.268;2023-01-19T05:04:20;21.55;;;11.63;;
2644;SDS011;15377;48.540;9.268;2023-01-19T05:06:46;19.35;;;11.35;;
2644;SDS011;15377;48.540;9.268;2023-01-19T05:09:12;23.03;;;12.97;;
2644;SDS011;15377;48.540;9.268;2023-01-19T05:11:39;21.17;;;9.65;;
2644;SDS011;15377;48.540;9.268;2023-01-19T05:14:05;25.23;;;14.67;;
2644;SDS011;15377;48.540;9.268;2023-01-19T05:16:30;18.70;;;10.97;;
2644;SDS011;15377;48.540;9.268;2023-01-19T05:18:56;20.23;;;12.70;;
2644;SDS011;15377;48.540;9.268;2023-01-19T05:21:21;23.80;;;12.10;;
2644;SDS011;15377;48.540;9.268;2023-01-19T05:23:46;20.23;;;11.60;;
2644;SDS011;15377;48.540;9.268;2023-01-19T05:26:12;23.73;;;12.53;;
2644;SDS011;15377;48.540;9.268;2023-01-19T05:28:37;22.67;;;11.87;;
2644;SDS011;15377;48.540;9.268;2023-01-19T05:31:03;19.50;;;11.67;;
2644;SDS011;15377;48.540;9.268;2023-01-19T05:33:28;20.53;;;12.10;;
2644;SDS011;15377;48.540;9.268;2023-01-19T05:35:54;20.93;;;11.27;;
2644;SDS011;15377;48.540;9.268;2023-01-19T05:38:20;22.80;;;12.20;;
2644;SDS011;15377;48.540;9.268;2023-01-19T05:40:46;19.02;;;11.88;;
2644;SDS011;15377;48.540;9.268;2023-01-19T05:43:12;21.90;;;12.67;;
2644;SDS011;15377;48.540;9.268;2023-01-19T05:45:38;19.63;;;12.02;;
2644;SDS011;15377;48.540;9.268;2023-01-19T05:48:04;20.90;;;11.87;;
2644;SDS011;15377;48.540;9.268;2023-01-19T05:50:31;20.27;;;10.73;;
2644;SDS011;15377;48.540;9.268;2023-01-19T05:52:56;18.43;;;10.83;;
2644;SDS011;15377;48.540;9.268;2023-01-19T05:55:22;17.13;;;9.73;;
2644;SDS011;15377;48.540;9.268;2023-01-19T05:57:48;19.23;;;11.17;;
2644;SDS011;15377;48.540;9.268;2023-01-19T06:00:13;19.00;;;11.60;;
2644;SDS011;15377;48.540;9.268;2023-01-19T06:02:39;16.37;;;11.27;;
2644;SDS011;15377;48.540;9.268;2023-01-19T06:05:04;25.20;;;11.00;;
2644;SDS011;15377;48.540;9.268;2023-01-19T06:07:30;20.13;;;11.00;;
2644;SDS011;15377;48.540;9.268;2023-01-19T06:09:56;17.50;;;10.03;;
2644;SDS011;15377;48.540;9.268;2023-01-19T06:12:22;18.00;;;10.27;;
2644;SDS011;15377;48.540;9.268;2023-01-19T06:14:48;16.53;;;11.27;;
2644;SDS011;15377;48.540;9.268;2023-01-19T06:17:13;21.20;;;9.30;;
2644;SDS011;15377;48.540;9.268;2023-01-19T06:19:39;22.50;;;12.30;;
2644;SDS011;15377;48.540;9.268;2023-01-19T06:22:04;23.70;;;12.33;;
2644;SDS011;15377;48.540;9.268;2023-01-19T06:24:30;22.37;;;12.00;;
2644;SDS011;15377;48.540;9.268;2023-01-19T06:26:55;20.07;;;11.47;;
2644;SDS011;15377;48.540;9.268;2023-01-19T06:29:21;19.10;;;11.73;;
2644;SDS011;15377;48.540;9.268;2023-01-19T06:31:47;22.07;;;12.63;;
2644;SDS011;15377;48.540;9.268;2023-01-19T06:34:12;21.67;;;12.27;;
2644;SDS011;15377;48.540;9.268;2023-01-19T06:36:37;25.77;;;12.93;;
2644;SDS011;15377;48.540;9.268;2023-01-19T06:39:03;20.57;;;12.70;;
2644;SDS011;15377;48.540;9.268;2023-01-19T06:41:31;23.55;;;13.23;;
2644;SDS011;15377;48.540;9.268;2023-01-19T06:43:57;19.90;;;11.57;;
2644;SDS011;15377;48.540;9.268;2023-01-19T06:46:22;20.07;;;11.60;;
2644;SDS011;15377;48.540;9.268;2023-01-19T06:48:48;25.83;;;11.63;;
2644;SDS011;15377;48.540;9.268;2023-01-19T06:51:13;20.63;;;12.67;;
2644;SDS011;15377;48.540;9.268;2023-01-19T06:53:38;23.77;;;12.50;;
2644;SDS011;15377;48.540;9.268;2023-01-19T06:56:04;24.93;;;14.03;;
2644;SDS011;15377;48.540;9.268;2023-01-19T06:58:30;26.42;;;12.85;;
2644;SDS011;15377;48.540;9.268;2023-01-19T07:00:59;23.60;;;13.90;;
2644;SDS011;15377;48.540;9.268;2023-01-19T07:03:26;23.05;;;13.57;;
2644;SDS011;15377;48.540;9.268;2023-01-19T07:05:51;24.63;;;12.77;;
2644;SDS011;15377;48.540;9.268;2023-01-19T07:08:17;20.67;;;13.20;;
2644;SDS011;15377;48.540;9.268;2023-01-19T07:10:42;20.57;;;12.17;;
2644;SDS011;15377;48.540;9.268;2023-01-19T07:13:08;22.90;;;12.50;;
2644;SDS011;15377;48.540;9.268;2023-01-19T07:15:34;22.73;;;12.13;;
2644;SDS011;15377;48.540;9.268;2023-01-19T07:17:59;16.40;;;11.53;;
2644;SDS011;15377;48.540;9.268;2023-01-19T07:20:29;21.73;;;12.50;;
2644;SDS011;15377;48.540;9.268;2023-01-19T07:22:55;21.60;;;12.63;;
2644;SDS011;15377;48.540;9.268;2023-01-19T07:25:21;21.50;;;12.80;;
2644;SDS011;15377;48.540;9.268;2023-01-19T07:27:47;22.07;;;13.30;;
2644;SDS011;15377;48.540;9.268;2023-01-19T07:30:12;21.20;;;12.27;;
2644;SDS011;15377;48.540;9.268;2023-01-19T07:32:40;21.83;;;11.80;;
2644;SDS011;15377;48.540;9.268;2023-01-19T07:35:06;30.15;;;14.75;;
2644;SDS011;15377;48.540;9.268;2023-01-19T07:37:34;21.08;;;12.02;;
2644;SDS011;15377;48.540;9.268;2023-01-19T07:40:00;22.10;;;13.00;;
2644;SDS011;15377;48.540;9.268;2023-01-19T07:42:25;20.33;;;12.23;;
2644;SDS011;15377;48.540;9.268;2023-01-19T07:44:51;23.07;;;12.30;;
2644;SDS011;15377;48.540;9.268;2023-01-19T07:47:16;24.27;;;13.23;;
2644;SDS011;15377;48.540;9.268;2023-01-19T07:49:42;20.23;;;11.40;;
2644;SDS011;15377;48.540;9.268;2023-01-19T07:52:07;26.37;;;14.87;;
2644;SDS011;15377;48.540;9.268;2023-01-19T07:54:33;23.38;;;12.95;;
2644;SDS011;15377;48.540;9.268;2023-01-19T07:56:58;22.53;;;12.87;;
2644;SDS011;15377;48.540;9.268;2023-01-19T07:59:27;19.55;;;10.68;;
2644;SDS011;15377;48.540;9.268;2023-01-19T08:01:54;22.90;;;14.38;;
2644;SDS011;15377;48.540;9.268;2023-01-19T08:04:20;20.47;;;12.57;;
2644;SDS011;15377;48.540;9.268;2023-01-19T08:06:45;27.37;;;14.67;;
2644;SDS011;15377;48.540;9.268;2023-01-19T08:09:11;26.53;;;15.83;;
2644;SDS011;15377;48.540;9.268;2023-01-19T08:11:37;24.70;;;14.47;;
2644;SDS011;15377;48.540;9.268;2023-01-19T08:14:03;37.67;;;18.90;;
2644;SDS011;15377;48.540;9.268;2023-01-19T08:16:28;21.70;;;12.83;;
2644;SDS011;15377;48.540;9.268;2023-01-19T08:18:54;23.87;;;14.00;;
2644;SDS011;15377;48.540;9.268;2023-01-19T08:21:19;22.70;;;13.00;;
2644;SDS011;15377;48.540;9.268;2023-01-19T08:23:52;20.97;;;11.30;;
2644;SDS011;15377;48.540;9.268;2023-01-19T08:26:24;20.63;;;11.80;;
2644;SDS011;15377;48.540;9.268;2023-01-19T08:28:53;23.60;;;10.43;;
2644;SDS011;15377;48.540;9.268;2023-01-19T08:31:18;19.53;;;11.03;;
2644;SDS011;15377;48.540;9.268;2023-01-19T08:33:44;16.17;;;10.23;;
2644;SDS011;15377;48.540;9.268;2023-01-19T08:36:09;19.23;;;10.47;;
2644;SDS011;15377;48.540;9.268;2023-01-19T08:38:35;15.50;;;9.93;;
2644;SDS011;15377;48.540;9.268;2023-01-19T08:41:00;19.67;;;10.37;;
2644;SDS011;15377;48.540;9.268;2023-01-19T08:43:25;18.80;;;11.87;;
2644;SDS011;15377;48.540;9.268;2023-01-19T08:45:51;18.97;;;11.10;;
2644;SDS011;15377;48.540;9.268;2023-01-19T08:48:18;18.13;;;11.48;;
2644;SDS011;15377;48.540;9.268;2023-01-19T08:50:47;18.10;;;10.95;;
2644;SDS011;15377;48.540;9.268;2023-01-19T08:53:13;19.95;;;12.43;;
2644;SDS011;15377;48.540;9.268;2023-01-19T08:55:39;18.58;;;11.20;;
2644;SDS011;15377;48.540;9.268;2023-01-19T08:58:05;18.07;;;10.90;;
2644;SDS011;15377;48.540;9.268;2023-01-19T09:00:32;19.38;;;10.07;;
2644;SDS011;15377;48.540;9.268;2023-01-19T09:02:59;22.45;;;12.52;;
2644;SDS011;15377;48.540;9.268;2023-01-19T09:05:27;20.15;;;13.10;;
2644;SDS011;15377;48.540;9.268;2023-01-19T09:07:52;19.33;;;11.27;;
2644;SDS011;15377;48.540;9.268;2023-01-19T09:10:18;17.53;;;11.30;;
2644;SDS011;15377;48.540;9.268;2023-01-19T09:12:43;25.13;;;13.57;;
2644;SDS011;15377;48.540;9.268;2023-01-19T09:15:10;15.40;;;10.13;;
2644;SDS011;15377;48.540;9.268;2023-01-19T09:17:38;29.98;;;17.42;;
2644;SDS011;15377;48.540;9.268;2023-01-19T09:20:05;18.33;;;12.00;;
2644;SDS011;15377;48.540;9.268;2023-01-19T09:22:31;17.50;;;10.38;;
2644;SDS011;15377;48.540;9.268;2023-01-19T09:24:57;18.58;;;11.43;;
2644;SDS011;15377;48.540;9.268;2023-01-19T09:27:22;17.17;;;9.80;;
2644;SDS011;15377;48.540;9.268;2023-01-19T09:29:48;15.97;;;9.73;;
2644;SDS011;15377;48.540;9.268;2023-01-19T09:32:16;14.82;;;10.25;;
2644;SDS011;15377;48.540;9.268;2023-01-19T09:34:43;15.80;;;10.20;;
2644;SDS011;15377;48.540;9.268;2023-01-19T09:37:08;13.70;;;9.03;;
2644;SDS011;15377;48.540;9.268;2023-01-19T09:39:34;17.37;;;9.83;;
2644;SDS011;15377;48.540;9.268;2023-01-19T09:42:33;13.77;;;9.07;;
2644;SDS011;15377;48.540;9.268;2023-01-19T09:44:55;13.25;;;9.00;;
2644;SDS011;15377;48.540;9.268;2023-01-19T09:47:22;15.27;;;8.37;;
2644;SDS011;15377;48.540;9.268;2023-01-19T09:50:00;16.90;;;9.53;;
2644;SDS011;15377;48.540;9.268;2023-01-19T09:52:29;16.63;;;9.00;;
2644;SDS011;15377;48.540;9.268;2023-01-19T09:54:59;14.60;;;8.70;;
2644;SDS011;15377;48.540;9.268;2023-01-19T09:57:24;15.30;;;7.87;;
2644;SDS011;15377;48.540;9.268;2023-01-19T09:59:51;13.33;;;8.03;;
2644;SDS011;15377;48.540;9.268;2023-01-19T10:10:08;12.00;;;7.87;;
2644;SDS011;15377;48.540;9.268;2023-01-19T10:12:50;19.30;;;8.35;;
2644;SDS011;15377;48.540;9.268;2023-01-19T10:18:22;12.10;;;7.70;;
2644;SDS011;15377;48.540;9.268;2023-01-19T10:20:54;14.80;;;8.50;;
2644;SDS011;15377;48.540;9.268;2023-01-19T10:29:02;12.43;;;9.20;;
2644;SDS011;15377;48.540;9.268;2023-01-19T10:31:36;22.83;;;11.25;;
2644;SDS011;15377;48.540;9.268;2023-01-19T10:34:04;13.88;;;9.25;;
2644;SDS011;15377;48.540;9.268;2023-01-19T10:36:36;15.10;;;9.43;;
2644;SDS011;15377;48.540;9.268;2023-01-19T10:39:04;18.08;;;11.65;;
2644;SDS011;15377;48.540;9.268;2023-01-19T10:41:40;11.60;;;7.30;;
2644;SDS011;15377;48.540;9.268;2023-01-19T10:44:15;10.90;;;6.22;;
2644;SDS011;15377;48.540;9.268;2023-01-19T10:46:59;11.32;;;7.00;;
2644;SDS011;15377;48.540;9.268;2023-01-19T10:52:02;12.65;;;8.27;;
2644;SDS011;15377;48.540;9.268;2023-01-19T10:54:33;13.65;;;8.48;;
2644;SDS011;15377;48.540;9.268;2023-01-19T10:57:02;22.30;;;12.15;;
2644;SDS011;15377;48.540;9.268;2023-01-19T10:59:31;21.10;;;10.75;;
2644;SDS011;15377;48.540;9.268;2023-01-19T11:02:11;14.00;;;9.10;;
2644;SDS011;15377;48.540;9.268;2023-01-19T11:04:46;15.32;;;9.43;;
2644;SDS011;15377;48.540;9.268;2023-01-19T11:07:14;16.65;;;7.18;;
2644;SDS011;15377;48.540;9.268;2023-01-19T11:09:48;12.55;;;7.65;;
2644;SDS011;15377;48.540;9.268;2023-01-19T11:12:34;13.63;;;7.38;;
2644;SDS011;15377;48.540;9.268;2023-01-19T11:15:11;15.00;;;7.13;;
2644;SDS011;15377;48.540;9.268;2023-01-19T11:17:56;19.15;;;6.50;;
2644;SDS011;15377;48.540;9.268;2023-01-19T11:20:23;11.45;;;7.72;;
2644;SDS011;15377;48.540;9.268;2023-01-19T11:25:44;13.05;;;7.07;;
2644;SDS011;15377;48.540;9.268;2023-01-19T11:28:24;13.40;;;8.35;;
2644;SDS011;15377;48.540;9.268;2023-01-19T11:33:33;12.27;;;7.75;;
2644;SDS011;15377;48.540;9.268;2023-01-19T11:36:04;12.48;;;7.45;;
2644;SDS011;15377;48.540;9.268;2023-01-19T11:38:43;13.85;;;8.30;;
2644;SDS011;15377;48.540;9.268;2023-01-19T11:41:15;13.05;;;6.60;;
2644;SDS011;15377;48.540;9.268;2023-01-19T11:43:43;13.80;;;8.48;;
2644;SDS011;15377;48.540;9.268;2023-01-19T11:46:10;14.73;;;8.35;;
2644;SDS011;15377;48.540;9.268;2023-01-19T11:51:29;13.10;;;7.53;;
2644;SDS011;15377;48.540;9.268;2023-01-19T11:54:01;12.95;;;8.35;;
2644;SDS011;15377;48.540;9.268;2023-01-19T11:56:39;13.23;;;7.30;;
2644;SDS011;15377;48.540;9.268;2023-01-19T11:59:07;12.00;;;7.45;;
2644;SDS011;15377;48.540;9.268;2023-01-19T12:01:35;17.73;;;7.43;;
2644;SDS011;15377;48.540;9.268;2023-01-19T12:04:15;14.23;;;7.47;;
2644;SDS011;15377;48.540;9.268;2023-01-19T12:06:47;13.48;;;7.47;;
2644;SDS011;15377;48.540;9.268;2023-01-19T12:11:52;12.63;;;7.43;;
2644;SDS011;15377;48.540;9.268;2023-01-19T12:14:23;12.60;;;7.70;;
2644;SDS011;15377;48.540;9.268;2023-01-19T12:16:54;12.98;;;7.53;;
2644;SDS011;15377;48.540;9.268;2023-01-19T12:19:25;10.73;;;6.93;;
2644;SDS011;15377;48.540;9.268;2023-01-19T12:21:59;11.23;;;6.90;;
2644;SDS011;15377;48.540;9.268;2023-01-19T12:24:29;14.80;;;6.35;;
2644;SDS011;15377;48.540;9.268;2023-01-19T12:27:26;12.88;;;6.43;;
2644;SDS011;15377;48.540;9.268;2023-01-19T12:30:15;10.98;;;6.40;;
2644;SDS011;15377;48.540;9.268;2023-01-19T12:32:44;11.30;;;6.57;;
2644;SDS011;15377;48.540;9.268;2023-01-19T12:38:22;12.57;;;7.07;;
2644;SDS011;15377;48.540;9.268;2023-01-19T12:43:47;13.25;;;7.18;;
2644;SDS011;15377;48.540;9.268;2023-01-19T12:46:32;11.20;;;6.47;;
2644;SDS011;15377;48.540;9.268;2023-01-19T12:57:37;14.75;;;6.60;;
2644;SDS011;15377;48.540;9.268;2023-01-19T13:00:27;11.48;;;6.78;;
2644;SDS011;15377;48.540;9.268;2023-01-19T13:15:47;14.98;;;6.55;;
2644;SDS011;15377;48.540;9.268;2023-01-19T13:18:19;32.20;;;15.87;;
2644;SDS011;15377;48.540;9.268;2023-01-19T13:23:22;17.45;;;10.40;;
2644;SDS011;15377;48.540;9.268;2023-01-19T13:25:53;15.48;;;9.10;;
2644;SDS011;15377;48.540;9.268;2023-01-19T13:28:45;15.48;;;8.20;;
2644;SDS011;15377;48.540;9.268;2023-01-19T13:31:14;15.00;;;7.70;;
2644;SDS011;15377;48.540;9.268;2023-01-19T13:33:42;13.25;;;6.95;;
2644;SDS011;15377;48.540;9.268;2023-01-19T13:36:31;13.57;;;6.82;;
2644;SDS011;15377;48.540;9.268;2023-01-19T13:39:00;13.27;;;7.10;;
2644;SDS011;15377;48.540;9.268;2023-01-19T13:41:29;20.23;;;9.77;;
2644;SDS011;15377;48.540;9.268;2023-01-19T13:44:00;17.17;;;8.25;;
2644;SDS011;15377;48.540;9.268;2023-01-19T13:46:31;12.27;;;6.22;;
2644;SDS011;15377;48.540;9.268;2023-01-19T13:49:02;12.35;;;7.22;;
2644;SDS011;15377;48.540;9.268;2023-01-19T13:51:33;18.33;;;8.75;;
2644;SDS011;15377;48.540;9.268;2023-01-19T13:53:59;10.43;;;5.40;;
2644;SDS011;15377;48.540;9.268;2023-01-19T13:56:28;14.30;;;6.55;;
2644;SDS011;15377;48.540;9.268;2023-01-19T13:59:04;13.93;;;7.15;;
2644;SDS011;15377;48.540;9.268;2023-01-19T14:01:41;13.63;;;7.80;;
2644;SDS011;15377;48.540;9.268;2023-01-19T14:04:24;11.00;;;5.47;;
2644;SDS011;15377;48.540;9.268;2023-01-19T14:06:59;9.82;;;5.25;;
2644;SDS011;15377;48.540;9.268;2023-01-19T14:09:27;19.15;;;9.07;;
2644;SDS011;15377;48.540;9.268;2023-01-19T14:12:15;9.60;;;4.50;;
2644;SDS011;15377;48.540;9.268;2023-01-19T14:14:42;11.80;;;4.95;;
2644;SDS011;15377;48.540;9.268;2023-01-19T14:17:29;9.80;;;4.85;;
2644;SDS011;15377;48.540;9.268;2023-01-19T14:19:55;9.05;;;5.93;;
2644;SDS011;15377;48.540;9.268;2023-01-19T14:22:41;12.13;;;6.72;;
2644;SDS011;15377;48.540;9.268;2023-01-19T14:31:20;12.82;;;4.82;;
2644;SDS011;15377;48.540;9.268;2023-01-19T14:33:48;10.05;;;4.90;;
2644;SDS011;15377;48.540;9.268;2023-01-19T14:38:46;11.90;;;5.97;;
2644;SDS011;15377;48.540;9.268;2023-01-19T14:41:32;7.60;;;4.22;;
2644;SDS011;15377;48.540;9.268;2023-01-19T14:44:07;9.10;;;5.13;;
2644;SDS011;15377;48.540;9.268;2023-01-19T14:46:47;9.73;;;5.30;;
2644;SDS011;15377;48.540;9.268;2023-01-19T14:49:15;9.20;;;4.93;;
2644;SDS011;15377;48.540;9.268;2023-01-19T14:52:14;9.10;;;4.78;;
2644;SDS011;15377;48.540;9.268;2023-01-19T14:54:54;10.63;;;5.70;;
2644;SDS011;15377;48.540;9.268;2023-01-19T14:57:21;17.40;;;5.88;;
2644;SDS011;15377;48.540;9.268;2023-01-19T14:59:47;10.97;;;5.60;;
2644;SDS011;15377;48.540;9.268;2023-01-19T15:02:13;9.18;;;4.90;;
2644;SDS011;15377;48.540;9.268;2023-01-19T15:04:39;11.53;;;7.13;;
2644;SDS011;15377;48.540;9.268;2023-01-19T15:07:11;13.80;;;5.03;;
2644;SDS011;15377;48.540;9.268;2023-01-19T15:09:41;14.27;;;5.35;;
2644;SDS011;15377;48.540;9.268;2023-01-19T15:12:07;13.63;;;6.83;;
2644;SDS011;15377;48.540;9.268;2023-01-19T15:14:36;10.60;;;5.60;;
2644;SDS011;15377;48.540;9.268;2023-01-19T15:17:01;11.90;;;5.63;;
2644;SDS011;15377;48.540;9.268;2023-01-19T15:19:27;10.20;;;5.70;;
2644;SDS011;15377;48.540;9.268;2023-01-19T15:21:52;11.33;;;6.20;;
2644;SDS011;15377;48.540;9.268;2023-01-19T15:24:17;10.37;;;4.93;;
2644;SDS011;15377;48.540;9.268;2023-01-19T15:26:42;12.50;;;5.33;;
2644;SDS011;15377;48.540;9.268;2023-01-19T15:29:41;12.67;;;6.47;;
2644;SDS011;15377;48.540;9.268;2023-01-19T15:31:59;10.88;;;5.50;;
2644;SDS011;15377;48.540;9.268;2023-01-19T15:34:26;9.13;;;5.45;;
2644;SDS011;15377;48.540;9.268;2023-01-19T15:36:51;9.43;;;5.13;;
2644;SDS011;15377;48.540;9.268;2023-01-19T15:39:16;9.23;;;5.30;;
2644;SDS011;15377;48.540;9.268;2023-01-19T15:41:42;11.87;;;5.53;;
2644;SDS011;15377;48.540;9.268;2023-01-19T15:44:08;10.60;;;5.93;;
2644;SDS011;15377;48.540;9.268;2023-01-19T15:46:34;9.20;;;4.90;;
2644;SDS011;15377;48.540;9.268;2023-01-19T15:49:00;11.57;;;5.63;;
2644;SDS011;15377;48.540;9.268;2023-01-19T15:51:25;10.20;;;5.53;;
2644;SDS011;15377;48.540;9.268;2023-01-19T15:53:52;12.00;;;5.87;;
2644;SDS011;15377;48.540;9.268;2023-01-19T15:58:45;14.60;;;5.82;;
2644;SDS011;15377;48.540;9.268;2023-01-19T16:01:11;10.27;;;5.57;;
2644;SDS011;15377;48.540;9.268;2023-01-19T16:03:37;9.10;;;5.13;;
2644;SDS011;15377;48.540;9.268;2023-01-19T16:06:03;9.43;;;5.13;;
2644;SDS011;15377;48.540;9.268;2023-01-19T16:08:28;8.73;;;5.23;;
2644;SDS011;15377;48.540;9.268;2023-01-19T16:10:54;12.83;;;5.30;;
2644;SDS011;15377;48.540;9.268;2023-01-19T16:13:19;9.60;;;5.50;;